Time;durP1;ratioP1;P1;durP2;ratioP2;P2;SDS_P1;SDS_P2;PMS_P1;PMS_P2;Temp;Humidity;BMP_temperature;BMP_pressure;BME280_temperature;BME280_humidity;BME280_pressure;Samples;Min_cycle;Max_cycle;Signal;HPM_P1;HPM_P2
2023/05/05 00:00:51;;;;;;;16.70;4.40;;;12.10;97.60;;;;;;5062667;28;20690;-69
2023/05/05 00:03:19;;;;;;;10.95;4.35;;;12.10;97.70;;;;;;5020293;28;206621;-69
2023/05/05 00:05:47;;;;;;;11.65;4.30;;;12.10;97.80;;;;;;5073014;28;20063;-70
2023/05/05 00:08:13;;;;;;;12.45;3.97;;;12.10;97.80;;;;;;5012820;28;207810;-69
2023/05/05 00:10:51;;;;;;;10.40;4.03;;;12.00;97.80;;;;;;5062043;28;20313;-70
2023/05/05 00:13:19;;;;;;;11.98;3.80;;;12.00;97.90;;;;;;5011614;28;218157;-69
2023/05/05 00:15:48;;;;;;;13.85;4.22;;;12.00;98.10;;;;;;5076608;28;20418;-70
2023/05/05 00:18:15;;;;;;;11.75;4.10;;;12.00;98.00;;;;;;5018930;28;207657;-69
2023/05/05 00:20:42;;;;;;;12.45;4.32;;;12.00;98.00;;;;;;5076970;28;20055;-69
2023/05/05 00:23:08;;;;;;;11.05;4.15;;;12.00;98.20;;;;;;5019096;28;207053;-68
2023/05/05 00:25:34;;;;;;;13.05;4.25;;;11.90;98.40;;;;;;5076839;28;20510;-68
2023/05/05 00:28:00;;;;;;;12.45;4.30;;;11.90;98.30;;;;;;5024147;28;208055;-70
2023/05/05 00:30:27;;;;;;;13.88;4.05;;;11.90;98.30;;;;;;5067803;28;20079;-68
2023/05/05 00:32:53;;;;;;;13.38;4.10;;;11.90;98.40;;;;;;5070015;28;207751;-69
2023/05/05 00:35:19;;;;;;;12.85;4.50;;;11.90;98.60;;;;;;5037728;28;174206;-70
2023/05/05 00:37:46;;;;;;;10.27;3.97;;;11.90;98.60;;;;;;5071932;28;20052;-68
2023/05/05 00:40:12;;;;;;;13.38;4.15;;;11.90;98.70;;;;;;5035296;28;208973;-69
2023/05/05 00:42:43;;;;;;;13.23;4.38;;;11.90;98.70;;;;;;5082443;28;20059;-70
2023/05/05 00:45:11;;;;;;;13.32;4.25;;;11.90;98.80;;;;;;5010517;28;212051;-69
2023/05/05 00:47:38;;;;;;;16.77;4.07;;;11.90;98.80;;;;;;5077500;28;20057;-69
2023/05/05 00:50:08;;;;;;;11.65;4.70;;;11.90;98.80;;;;;;5031325;28;207531;-69
2023/05/05 00:52:35;;;;;;;8.95;4.30;;;11.90;98.70;;;;;;5074363;28;20060;-69
2023/05/05 00:55:03;;;;;;;16.20;4.35;;;11.90;98.80;;;;;;5003835;28;218030;-70
2023/05/05 00:57:29;;;;;;;14.30;4.63;;;11.90;99.10;;;;;;5073076;28;20434;-70
2023/05/05 00:59:58;;;;;;;14.63;4.47;;;11.90;99.00;;;;;;4985590;28;208263;-69
2023/05/05 01:02:24;;;;;;;11.35;4.30;;;11.80;99.00;;;;;;5073718;28;20503;-70
2023/05/05 01:04:51;;;;;;;13.10;4.93;;;11.80;99.10;;;;;;4999096;28;207151;-70
2023/05/05 01:07:36;;;;;;;11.55;4.57;;;11.80;99.10;;;;;;5061799;28;20511;-70
2023/05/05 01:10:24;;;;;;;17.92;4.65;;;11.80;99.10;;;;;;4993533;28;207816;-70
2023/05/05 01:13:19;;;;;;;11.07;4.43;;;11.80;99.00;;;;;;5056261;28;20052;-69
2023/05/05 01:15:52;;;;;;;11.70;4.35;;;11.80;99.40;;;;;;5009386;28;76952;-69
2023/05/05 01:18:37;;;;;;;13.15;4.43;;;11.80;99.20;;;;;;5016471;28;210151;-70
2023/05/05 01:21:15;;;;;;;14.65;4.93;;;11.90;99.20;;;;;;5079720;28;20529;-69
2023/05/05 01:24:03;;;;;;;13.43;4.70;;;11.90;99.30;;;;;;5019554;28;213031;-69
2023/05/05 01:26:41;;;;;;;12.13;4.43;;;11.90;99.10;;;;;;5074905;28;21175;-69
2023/05/05 01:29:53;;;;;;;12.77;4.40;;;11.80;99.40;;;;;;5011408;28;210769;-69
2023/05/05 01:32:25;;;;;;;12.80;4.20;;;11.80;99.40;;;;;;5083677;28;20418;-70
2023/05/05 01:34:57;;;;;;;11.35;4.47;;;11.80;99.20;;;;;;5025322;28;207687;-70
2023/05/05 01:37:35;;;;;;;12.00;4.60;;;11.70;99.30;;;;;;5080636;28;20044;-70
2023/05/05 01:40:06;;;;;;;12.27;4.45;;;11.70;99.40;;;;;;5036634;28;209617;-69
2023/05/05 01:42:35;;;;;;;15.25;4.38;;;11.80;99.50;;;;;;5077353;28;20118;-69
2023/05/05 01:45:06;;;;;;;12.38;4.45;;;11.70;99.40;;;;;;5008306;28;211601;-67
2023/05/05 01:47:32;;;;;;;12.77;4.75;;;11.70;99.60;;;;;;5075382;28;20052;-67
2023/05/05 01:50:00;;;;;;;16.23;4.60;;;11.70;99.60;;;;;;5001139;28;210462;-67
2023/05/05 01:52:28;;;;;;;13.88;4.35;;;11.70;99.60;;;;;;5073563;28;20051;-67
2023/05/05 01:54:58;;;;;;;12.40;4.32;;;11.80;99.60;;;;;;5018682;28;213330;-67
2023/05/05 01:57:27;;;;;;;12.57;4.28;;;11.80;99.50;;;;;;5074560;28;20089;-66
2023/05/05 01:59:55;;;;;;;13.82;4.65;;;11.70;99.60;;;;;;4984587;28;217025;-68
2023/05/05 02:02:24;;;;;;;11.52;4.70;;;11.80;99.70;;;;;;5070807;28;20049;-67
2023/05/05 02:04:53;;;;;;;12.65;4.72;;;11.80;99.80;;;;;;5027948;28;206895;-67
2023/05/05 02:07:20;;;;;;;11.57;4.72;;;11.80;99.70;;;;;;5075959;28;20048;-67
2023/05/05 02:09:47;;;;;;;10.65;4.20;;;11.80;99.70;;;;;;5020487;28;208980;-68
2023/05/05 02:12:15;;;;;;;11.90;4.72;;;11.80;99.80;;;;;;5074855;28;20071;-68
2023/05/05 02:14:42;;;;;;;11.45;4.60;;;11.80;99.70;;;;;;5021713;28;209346;-68
2023/05/05 02:17:10;;;;;;;10.32;4.35;;;11.80;99.70;;;;;;5077418;28;20403;-68
2023/05/05 02:19:39;;;;;;;13.07;4.57;;;11.80;99.60;;;;;;5013058;28;207812;-68
2023/05/05 02:22:05;;;;;;;12.45;4.70;;;11.80;99.70;;;;;;5072815;28;20044;-67
2023/05/05 02:24:31;;;;;;;10.57;4.55;;;11.80;99.80;;;;;;5007774;28;207213;-69
2023/05/05 02:27:04;;;;;;;12.25;4.68;;;11.80;99.80;;;;;;5055990;28;20044;-68
2023/05/05 02:30:07;;;;;;;12.30;4.57;;;11.80;99.80;;;;;;5033240;28;64768;-66
2023/05/05 02:32:36;;;;;;;10.85;4.25;;;11.80;99.90;;;;;;5063083;28;20087;-67
2023/05/05 02:35:20;;;;;;;12.15;4.82;;;11.80;99.90;;;;;;5000890;28;206968;-67
2023/05/05 02:37:54;;;;;;;10.93;4.75;;;11.80;99.90;;;;;;5074205;28;20052;-65
2023/05/05 02:40:27;;;;;;;10.90;4.38;;;11.80;99.90;;;;;;4999502;28;206683;-68
2023/05/05 02:42:57;;;;;;;12.70;4.55;;;11.80;99.90;;;;;;5059287;28;207133;-68
2023/05/05 02:45:25;;;;;;;11.07;4.72;;;11.70;99.90;;;;;;5003747;28;260979;-67
2023/05/05 02:47:52;;;;;;;9.38;4.13;;;11.80;99.90;;;;;;5075049;28;20048;-68
2023/05/05 02:50:18;;;;;;;9.85;4.50;;;11.70;99.90;;;;;;5002087;28;162207;-68
2023/05/05 02:52:44;;;;;;;12.75;4.70;;;11.70;99.90;;;;;;5072427;28;20539;-69
2023/05/05 02:55:11;;;;;;;14.15;4.70;;;11.70;99.90;;;;;;5030685;28;210718;-67
2023/05/05 02:57:43;;;;;;;10.88;4.15;;;11.70;99.90;;;;;;5077084;28;20056;-67
2023/05/05 03:00:35;;;;;;;11.30;4.68;;;11.70;99.90;;;;;;5011279;28;207098;-67
2023/05/05 03:03:18;;;;;;;11.25;4.50;;;11.70;99.90;;;;;;5013684;28;207291;-69
2023/05/05 03:06:06;;;;;;;13.65;4.53;;;11.60;99.90;;;;;;5093666;28;20438;-68
2023/05/05 03:08:37;;;;;;;14.52;4.30;;;11.60;99.90;;;;;;5024191;28;206189;-68
2023/05/05 03:11:06;;;;;;;11.38;4.70;;;11.60;99.90;;;;;;5069521;28;20051;-68
2023/05/05 03:13:38;;;;;;;10.95;4.45;;;11.60;99.90;;;;;;5018215;28;192274;-68
2023/05/05 03:16:06;;;;;;;16.38;4.88;;;11.60;99.90;;;;;;5070420;28;20052;-68
2023/05/05 03:18:36;;;;;;;10.68;4.63;;;11.60;99.90;;;;;;5025757;28;212465;-67
2023/05/05 03:21:07;;;;;;;10.23;4.45;;;11.70;99.90;;;;;;5079309;28;20048;-67
2023/05/05 03:23:35;;;;;;;10.23;4.40;;;11.70;99.90;;;;;;5012960;28;215947;-67
2023/05/05 03:26:01;;;;;;;10.85;4.40;;;11.60;99.90;;;;;;5068891;28;20051;-68
2023/05/05 03:28:28;;;;;;;14.38;5.00;;;11.60;99.90;;;;;;5019290;28;206160;-68
2023/05/05 03:30:55;;;;;;;11.48;4.55;;;11.60;99.90;;;;;;5059375;28;20070;-68
2023/05/05 03:33:21;;;;;;;11.15;4.70;;;11.60;99.90;;;;;;5000763;28;209080;-68
2023/05/05 03:35:47;;;;;;;10.75;4.93;;;11.60;99.90;;;;;;5061748;28;20059;-67
2023/05/05 03:38:13;;;;;;;13.80;5.10;;;11.50;99.90;;;;;;5000617;28;211906;-68
2023/05/05 03:40:39;;;;;;;10.68;4.68;;;11.60;99.90;;;;;;5050134;28;20114;-68
2023/05/05 03:43:05;;;;;;;11.65;4.70;;;11.60;99.90;;;;;;5026360;28;207172;-67
2023/05/05 03:45:31;;;;;;;12.43;4.60;;;11.60;99.90;;;;;;5076673;28;20056;-68
2023/05/05 03:47:57;;;;;;;11.50;4.93;;;11.70;99.90;;;;;;5037677;28;207916;-68
2023/05/05 03:50:24;;;;;;;10.88;4.90;;;11.70;99.90;;;;;;5048819;28;20059;-67
2023/05/05 03:52:50;;;;;;;11.82;4.80;;;11.70;99.90;;;;;;5075262;28;20078;-68
2023/05/05 03:55:16;;;;;;;15.90;5.03;;;11.80;99.90;;;;;;5007242;28;207356;-67
2023/05/05 03:57:43;;;;;;;13.38;5.47;;;11.80;99.90;;;;;;5078861;28;20052;-68
2023/05/05 04:00:10;;;;;;;12.20;5.00;;;11.70;99.90;;;;;;4974160;28;210156;-67
2023/05/05 04:02:36;;;;;;;14.63;5.60;;;11.80;99.90;;;;;;5073552;28;20055;-68
2023/05/05 04:05:03;;;;;;;14.45;5.10;;;11.80;99.90;;;;;;5002845;28;206352;-68
2023/05/05 04:07:29;;;;;;;12.60;5.25;;;11.80;99.90;;;;;;5068326;28;20056;-68
2023/05/05 04:09:57;;;;;;;13.88;5.70;;;11.80;99.90;;;;;;4969633;28;211366;-68
2023/05/05 04:12:23;;;;;;;12.82;5.53;;;11.80;99.90;;;;;;5076879;28;20441;-71
2023/05/05 04:14:50;;;;;;;14.25;6.70;;;11.80;99.90;;;;;;5015785;28;206392;-74
2023/05/05 04:17:16;;;;;;;17.00;8.15;;;11.80;99.90;;;;;;5074711;28;20681;-73
2023/05/05 04:19:42;;;;;;;20.10;7.30;;;11.70;99.90;;;;;;5021198;28;225525;-74
2023/05/05 04:22:08;;;;;;;14.77;8.00;;;11.50;99.90;;;;;;5077811;28;20057;-75
2023/05/05 04:24:34;;;;;;;15.35;7.72;;;11.30;99.90;;;;;;5017818;28;211167;-74
2023/05/05 04:27:01;;;;;;;18.10;7.75;;;11.10;99.90;;;;;;5073172;28;20048;-73
2023/05/05 04:29:27;;;;;;;18.75;8.27;;;11.10;99.90;;;;;;5025516;28;211070;-72
2023/05/05 04:31:53;;;;;;;18.25;8.50;;;10.90;99.90;;;;;;5077364;28;20053;-71
2023/05/05 04:34:19;;;;;;;16.35;8.27;;;10.80;99.90;;;;;;5013095;28;213255;-71
2023/05/05 04:36:45;;;;;;;17.33;8.63;;;10.70;99.90;;;;;;5074929;28;20052;-71
2023/05/05 04:39:11;;;;;;;15.38;7.97;;;10.70;99.90;;;;;;5015151;28;208221;-72
2023/05/05 04:41:38;;;;;;;16.88;8.30;;;10.60;99.90;;;;;;5070836;28;20518;-72
2023/05/05 04:44:04;;;;;;;16.45;8.57;;;10.50;99.90;;;;;;5019329;28;206869;-72
2023/05/05 04:46:30;;;;;;;19.05;9.10;;;10.50;99.90;;;;;;5081352;28;20075;-73
2023/05/05 04:48:57;;;;;;;19.90;9.02;;;10.50;99.90;;;;;;5010352;28;207902;-73
2023/05/05 04:51:24;;;;;;;17.23;8.52;;;10.40;99.90;;;;;;5076946;28;20055;-73
2023/05/05 04:53:51;;;;;;;14.05;8.35;;;10.40;99.90;;;;;;5020035;28;206651;-74
2023/05/05 04:56:17;;;;;;;17.83;8.32;;;10.40;99.90;;;;;;5074045;28;20044;-74
2023/05/05 04:58:43;;;;;;;18.05;8.32;;;10.40;99.90;;;;;;4994331;28;204970;-74
2023/05/05 05:01:09;;;;;;;15.77;8.75;;;10.40;99.90;;;;;;5069414;28;20157;-74
2023/05/05 05:03:35;;;;;;;13.95;8.30;;;10.30;99.90;;;;;;5019782;28;207067;-74
2023/05/05 05:06:01;;;;;;;15.65;8.55;;;10.30;99.90;;;;;;5088872;28;20640;-75
2023/05/05 05:08:27;;;;;;;15.50;8.48;;;10.40;99.90;;;;;;5022555;28;205187;-74
2023/05/05 05:10:53;;;;;;;17.15;8.52;;;10.40;99.90;;;;;;5084020;28;20407;-74
2023/05/05 05:13:19;;;;;;;18.02;8.48;;;10.40;99.90;;;;;;5014742;28;207578;-74
2023/05/05 05:15:45;;;;;;;16.45;8.52;;;10.40;99.90;;;;;;5071721;28;20055;-73
2023/05/05 05:18:12;;;;;;;15.30;8.77;;;10.50;99.90;;;;;;5009955;28;205295;-74
2023/05/05 05:20:38;;;;;;;17.23;8.57;;;10.50;99.90;;;;;;5069706;28;20059;-74
2023/05/05 05:23:04;;;;;;;19.83;9.37;;;10.60;99.90;;;;;;5016612;28;208625;-74
2023/05/05 05:25:30;;;;;;;14.90;9.18;;;10.60;99.90;;;;;;5068085;28;20052;-74
2023/05/05 05:27:56;;;;;;;14.43;8.15;;;10.70;99.90;;;;;;5047564;28;208122;-74
2023/05/05 05:30:22;;;;;;;15.13;9.07;;;10.80;99.90;;;;;;5023187;28;205377;-74
2023/05/05 05:32:49;;;;;;;20.15;9.40;;;10.80;99.90;;;;;;5062218;28;20064;-74
2023/05/05 05:35:15;;;;;;;15.15;9.07;;;11.00;99.90;;;;;;5002634;28;207223;-74
2023/05/05 05:37:41;;;;;;;16.05;9.38;;;11.10;99.90;;;;;;5076225;28;20047;-74
2023/05/05 05:40:08;;;;;;;16.92;9.25;;;11.20;99.90;;;;;;5007133;28;224453;-72
2023/05/05 05:42:34;;;;;;;16.40;8.40;;;11.40;99.90;;;;;;5074047;28;20040;-73
2023/05/05 05:45:00;;;;;;;17.40;9.18;;;11.40;99.90;;;;;;5007039;28;210753;-73
2023/05/05 05:47:26;;;;;;;18.65;8.70;;;11.50;99.90;;;;;;5068775;28;20048;-73
2023/05/05 05:49:53;;;;;;;15.35;8.23;;;11.80;99.90;;;;;;5025335;28;209002;-73
2023/05/05 05:52:19;;;;;;;15.30;8.50;;;12.00;99.90;;;;;;5068677;28;20055;-73
2023/05/05 05:54:45;;;;;;;14.25;7.93;;;12.10;99.90;;;;;;5015715;28;208899;-72
2023/05/05 05:57:11;;;;;;;14.75;7.85;;;12.20;99.90;;;;;;5075137;28;20060;-72
2023/05/05 05:59:37;;;;;;;14.07;8.25;;;12.80;99.90;;;;;;4971714;28;238561;-72
2023/05/05 06:02:03;;;;;;;13.55;7.88;;;13.20;99.90;;;;;;5068029;28;20052;-73
2023/05/05 06:04:30;;;;;;;16.67;7.47;;;13.40;99.90;;;;;;5017028;28;211398;-73
2023/05/05 06:06:56;;;;;;;17.02;7.40;;;13.60;99.90;;;;;;5074511;28;20056;-72
2023/05/05 06:09:23;;;;;;;12.82;6.68;;;13.80;99.90;;;;;;5009550;28;208349;-73
2023/05/05 06:11:50;;;;;;;13.88;6.85;;;13.90;99.90;;;;;;5061786;28;20060;-72
2023/05/05 06:14:16;;;;;;;13.32;7.25;;;13.80;99.90;;;;;;5011710;28;216556;-73
2023/05/05 06:16:43;;;;;;;15.25;7.75;;;13.70;99.90;;;;;;5070763;28;20063;-73
2023/05/05 06:19:09;;;;;;;14.00;6.82;;;13.60;99.90;;;;;;5016806;28;213283;-73
2023/05/05 06:21:36;;;;;;;13.32;7.35;;;13.30;99.90;;;;;;5059550;28;20067;-73
2023/05/05 06:24:02;;;;;;;13.35;7.60;;;13.10;99.90;;;;;;4997502;28;210430;-73
2023/05/05 06:26:28;;;;;;;12.52;7.18;;;13.10;99.90;;;;;;5062000;28;20037;-73
2023/05/05 06:28:54;;;;;;;13.35;7.00;;;13.00;99.90;;;;;;5004897;28;221175;-73
2023/05/05 06:31:20;;;;;;;11.85;7.30;;;13.00;99.90;;;;;;5060234;28;20064;-73
2023/05/05 06:33:46;;;;;;;16.25;7.50;;;13.00;99.90;;;;;;5005861;28;214773;-73
2023/05/05 06:36:13;;;;;;;14.73;7.25;;;13.00;99.90;;;;;;5066528;28;20044;-73
2023/05/05 06:38:39;;;;;;;15.93;7.82;;;13.00;99.90;;;;;;5004612;28;212353;-72
2023/05/05 06:41:05;;;;;;;13.68;7.55;;;13.30;99.90;;;;;;5052309;28;20040;-72
2023/05/05 06:43:31;;;;;;;12.93;6.90;;;13.50;99.90;;;;;;5009990;28;218693;-72
2023/05/05 06:45:57;;;;;;;13.50;7.32;;;13.50;99.90;;;;;;5069209;28;20048;-72
2023/05/05 06:48:23;;;;;;;13.38;7.40;;;13.50;99.90;;;;;;4995283;28;210188;-72
2023/05/05 06:50:49;;;;;;;13.82;7.47;;;13.40;99.90;;;;;;5055833;28;20060;-72
2023/05/05 06:53:15;;;;;;;12.63;7.10;;;13.30;99.90;;;;;;4997566;28;220746;-72
2023/05/05 06:55:43;;;;;;;17.98;8.18;;;13.40;99.90;;;;;;5062013;28;20079;-73
2023/05/05 06:58:10;;;;;;;14.57;7.88;;;13.50;99.90;;;;;;4988657;28;234709;-72
2023/05/05 07:00:46;;;;;;;17.45;7.80;;;13.60;99.90;;;;;;5065291;28;20041;-72
2023/05/05 07:03:12;;;;;;;12.95;7.28;;;13.90;99.90;;;;;;5022325;28;239886;-73
2023/05/05 07:05:40;;;;;;;11.90;7.72;;;14.30;99.90;;;;;;5035064;28;20036;-73
2023/05/05 07:08:07;;;;;;;15.88;7.78;;;14.80;99.90;;;;;;5007481;28;212390;-72
2023/05/05 07:10:33;;;;;;;13.32;7.30;;;15.30;99.90;;;;;;5061285;28;20040;-73
2023/05/05 07:13:00;;;;;;;14.05;7.53;;;15.70;99.90;;;;;;5007985;28;233203;-72
2023/05/05 07:15:27;;;;;;;12.52;6.80;;;16.00;99.90;;;;;;5067140;28;20519;-73
2023/05/05 07:17:53;;;;;;;14.73;7.20;;;16.40;99.90;;;;;;5060181;28;227883;-72
2023/05/05 07:20:19;;;;;;;12.38;6.95;;;16.90;99.90;;;;;;5013816;28;203657;-72
2023/05/05 07:22:45;;;;;;;12.00;6.32;;;17.30;99.90;;;;;;5080369;28;21664;-72
2023/05/05 07:25:11;;;;;;;16.42;6.90;;;17.60;99.90;;;;;;5019606;28;210856;-72
2023/05/05 07:27:38;;;;;;;12.95;6.60;;;17.90;99.90;;;;;;5067488;28;20052;-72
2023/05/05 07:30:05;;;;;;;16.52;7.32;;;18.20;99.90;;;;;;4998223;28;213332;-73
2023/05/05 07:32:31;;;;;;;12.93;6.20;;;18.40;99.90;;;;;;5072237;28;20062;-73
2023/05/05 07:34:57;;;;;;;14.48;6.20;;;18.70;99.90;;;;;;5003616;28;215645;-73
2023/05/05 07:37:23;;;;;;;14.82;6.45;;;18.70;99.90;;;;;;5068986;28;20063;-73
2023/05/05 07:39:51;;;;;;;13.63;6.30;;;18.70;99.90;;;;;;4986390;28;209416;-73
2023/05/05 07:42:19;;;;;;;12.75;6.70;;;18.80;99.90;;;;;;5084549;28;20078;-73
2023/05/05 07:44:46;;;;;;;12.98;6.03;;;19.20;99.90;;;;;;5014766;28;193267;-73
2023/05/05 07:47:12;;;;;;;11.02;6.35;;;19.60;99.90;;;;;;5082479;28;20505;-73
2023/05/05 07:49:38;;;;;;;12.48;6.25;;;19.90;99.90;;;;;;5018166;28;217897;-73
2023/05/05 07:52:05;;;;;;;11.07;5.95;;;20.30;99.90;;;;;;5082768;28;20055;-73
2023/05/05 07:54:31;;;;;;;12.35;7.13;;;20.80;99.90;;;;;;5025993;28;213882;-73
2023/05/05 07:56:58;;;;;;;15.68;6.18;;;21.40;99.90;;;;;;5081174;28;20502;-73
2023/05/05 07:59:24;;;;;;;14.60;6.55;;;21.60;99.90;;;;;;5014535;28;224921;-73
2023/05/05 08:01:50;;;;;;;12.98;6.35;;;21.30;99.90;;;;;;5070755;28;20045;-73
2023/05/05 08:04:17;;;;;;;13.32;6.72;;;21.20;99.90;;;;;;5010684;27;206654;-73
2023/05/05 08:06:43;;;;;;;13.85;6.88;;;21.10;99.90;;;;;;5081066;28;22408;-73
2023/05/05 08:09:11;;;;;;;13.68;7.28;;;20.90;99.90;;;;;;5026144;27;210286;-74
2023/05/05 08:11:37;;;;;;;12.93;6.90;;;20.80;99.90;;;;;;5074604;28;20056;-75
2023/05/05 08:14:03;;;;;;;12.40;7.35;;;20.70;99.90;;;;;;5020616;28;217038;-73
2023/05/05 08:16:29;;;;;;;12.68;6.82;;;21.00;99.90;;;;;;5081258;28;20048;-73
2023/05/05 08:18:57;;;;;;;15.07;7.10;;;21.10;99.90;;;;;;5022469;27;220751;-73
2023/05/05 08:21:23;;;;;;;13.70;7.05;;;21.50;99.90;;;;;;5068624;28;20529;-74
2023/05/05 08:23:49;;;;;;;12.13;7.07;;;21.60;99.90;;;;;;5014554;28;218597;-74
2023/05/05 08:26:15;;;;;;;11.82;6.80;;;21.30;99.90;;;;;;5082877;28;20048;-74
2023/05/05 08:28:42;;;;;;;13.90;7.85;;;21.30;99.90;;;;;;5018179;28;212496;-74
2023/05/05 08:31:08;;;;;;;12.77;7.22;;;20.90;99.90;;;;;;5056996;28;20044;-75
2023/05/05 08:33:34;;;;;;;15.40;7.40;;;21.00;99.90;;;;;;5023164;28;208903;-74
2023/05/05 08:36:00;;;;;;;14.38;7.57;;;21.30;99.90;;;;;;5056372;28;20055;-73
2023/05/05 08:38:26;;;;;;;12.50;7.60;;;21.80;99.90;;;;;;5013985;27;224172;-73
2023/05/05 08:40:52;;;;;;;12.77;7.90;;;22.20;99.90;;;;;;5070908;28;20079;-74
2023/05/05 08:43:21;;;;;;;12.55;7.30;;;22.50;99.90;;;;;;5003695;28;209835;-71
2023/05/05 08:45:48;;;;;;;12.65;7.10;;;22.90;99.90;;;;;;5061715;28;20063;-73
2023/05/05 08:48:18;;;;;;;15.40;8.70;;;22.90;99.90;;;;;;5001044;28;209278;-73
2023/05/05 08:50:50;;;;;;;15.82;8.40;;;23.00;99.90;;;;;;5069241;28;20562;-73
2023/05/05 08:53:20;;;;;;;15.98;8.60;;;23.20;99.90;;;;;;5015264;28;216794;-73
2023/05/05 08:55:51;;;;;;;12.65;8.35;;;23.50;99.90;;;;;;5047287;28;20534;-74
2023/05/05 08:58:18;;;;;;;13.57;8.48;;;24.30;99.40;;;;;;4991960;28;206265;-73
2023/05/05 09:00:45;;;;;;;15.65;8.40;;;24.20;98.60;;;;;;5058592;28;20056;-73
2023/05/05 09:03:11;;;;;;;12.40;8.30;;;24.40;98.20;;;;;;5012342;28;212936;-73
2023/05/05 09:05:38;;;;;;;12.90;8.05;;;24.90;97.60;;;;;;5059426;28;20059;-74
2023/05/05 09:08:06;;;;;;;14.40;8.27;;;25.00;96.30;;;;;;5021833;28;219900;-72
2023/05/05 09:10:35;;;;;;;13.50;8.40;;;24.60;97.50;;;;;;5066239;28;20056;-72
2023/05/05 09:13:05;;;;;;;13.82;8.25;;;24.50;98.00;;;;;;5021419;28;217695;-71
2023/05/05 09:15:32;;;;;;;15.53;9.70;;;24.50;97.70;;;;;;5078340;28;20040;-74
2023/05/05 09:17:59;;;;;;;15.63;10.00;;;24.20;97.70;;;;;;5032724;28;213789;-70
2023/05/05 09:20:34;;;;;;;12.98;9.68;;;24.50;96.10;;;;;;5046426;28;20048;-74
2023/05/05 09:23:17;;;;;;;15.67;10.40;;;25.20;96.10;;;;;;5005988;28;232681;-73
2023/05/05 09:25:47;;;;;;;16.98;11.07;;;25.80;95.50;;;;;;5058765;28;20637;-74
2023/05/05 09:28:15;;;;;;;18.83;11.73;;;25.90;96.40;;;;;;5033042;28;210974;-73
2023/05/05 09:30:44;;;;;;;16.63;12.07;;;25.00;96.20;;;;;;5028316;28;20064;-74
2023/05/05 09:33:11;;;;;;;15.93;11.67;;;23.70;96.60;;;;;;5014697;28;215048;-74
2023/05/05 09:35:54;;;;;;;18.05;12.18;;;23.00;97.50;;;;;;5052827;28;20541;-73
2023/05/05 09:38:23;;;;;;;16.85;11.80;;;22.80;96.50;;;;;;5002782;28;207922;-74
2023/05/05 09:40:53;;;;;;;17.63;11.52;;;22.70;97.30;;;;;;5072444;28;20100;-74
2023/05/05 09:43:21;;;;;;;17.25;12.00;;;22.40;97.60;;;;;;5015372;28;207580;-74
2023/05/05 09:45:48;;;;;;;18.95;12.20;;;22.20;98.20;;;;;;5076916;28;20055;-73
2023/05/05 09:48:28;;;;;;;20.55;12.15;;;22.00;97.80;;;;;;5009648;28;210935;-73
2023/05/05 09:50:56;;;;;;;16.65;11.95;;;21.90;97.90;;;;;;5079247;28;20063;-73
2023/05/05 09:53:23;;;;;;;17.58;12.63;;;21.60;98.30;;;;;;5014211;28;221683;-74
2023/05/05 09:55:56;;;;;;;17.23;11.73;;;21.70;98.20;;;;;;5060858;28;20055;-74
2023/05/05 09:58:27;;;;;;;18.35;12.40;;;21.80;98.30;;;;;;5019092;28;216041;-74
2023/05/05 10:00:55;;;;;;;18.45;11.88;;;21.80;98.30;;;;;;5072518;28;20065;-73
2023/05/05 10:03:21;;;;;;;15.38;11.30;;;21.70;98.50;;;;;;5014583;28;214140;-73
2023/05/05 10:05:53;;;;;;;18.20;11.75;;;21.60;98.60;;;;;;5053756;28;20052;-73
2023/05/05 10:08:21;;;;;;;17.17;11.63;;;22.20;98.40;;;;;;5013816;28;224657;-72
2023/05/05 10:11:05;;;;;;;18.45;11.02;;;22.10;97.80;;;;;;5069718;28;20044;-72
2023/05/05 10:13:36;;;;;;;20.20;12.02;;;21.40;98.10;;;;;;5010829;28;232508;-73
2023/05/05 10:16:03;;;;;;;16.83;11.77;;;21.30;99.10;;;;;;5070080;28;20063;-72
2023/05/05 10:18:31;;;;;;;16.92;11.60;;;21.50;98.90;;;;;;5020073;28;213472;-73
2023/05/05 10:21:02;;;;;;;18.55;11.80;;;21.90;98.70;;;;;;5080103;28;20060;-73
2023/05/05 10:23:48;;;;;;;17.65;11.75;;;22.90;98.20;;;;;;5011013;28;226516;-73
2023/05/05 10:26:18;;;;;;;17.95;11.07;;;23.20;97.70;;;;;;5051187;28;20052;-73
2023/05/05 10:28:53;;;;;;;18.23;11.60;;;23.00;97.70;;;;;;5007919;28;228875;-71
2023/05/05 10:31:28;;;;;;;18.05;12.35;;;22.90;97.90;;;;;;5074636;28;20304;-70
2023/05/05 10:33:57;;;;;;;18.90;11.98;;;23.00;98.00;;;;;;5012105;28;207512;-71
2023/05/05 10:36:24;;;;;;;16.85;12.32;;;23.30;97.40;;;;;;5070513;28;20052;-71
2023/05/05 10:39:15;;;;;;;;;;;;;;;;;;;;;
2023/05/05 10:41:50;;;;;;;16.70;10.43;;;23.50;97.60;;;;;;5080177;28;20044;-70
2023/05/05 10:44:21;;;;;;;15.30;9.40;;;23.70;97.60;;;;;;4974996;28;1308309;-70
2023/05/05 10:46:48;;;;;;;14.57;10.15;;;24.70;97.20;;;;;;5060223;28;20049;-73
2023/05/05 10:49:41;;;;;;;13.90;9.05;;;25.30;96.50;;;;;;5019380;28;207146;-72
2023/05/05 10:52:22;;;;;;;16.15;8.90;;;25.60;96.60;;;;;;5074520;28;20140;-72
2023/05/05 10:55:00;;;;;;;17.80;8.55;;;25.80;96.00;;;;;;4979144;28;216077;-73
2023/05/05 10:57:27;;;;;;;13.30;7.22;;;26.00;95.60;;;;;;5073324;28;20052;-73
2023/05/05 10:59:54;;;;;;;15.30;8.80;;;26.30;95.10;;;;;;4959096;28;218431;-73
2023/05/05 11:02:38;;;;;;;13.90;8.98;;;25.00;94.70;;;;;;5073356;28;20114;-73
2023/05/05 11:05:25;;;;;;;13.57;8.73;;;24.50;95.40;;;;;;4980933;28;218299;-72
2023/05/05 11:07:51;;;;;;;14.07;8.38;;;24.80;94.70;;;;;;5074366;28;20060;-73
2023/05/05 11:10:19;;;;;;;12.80;7.70;;;24.80;95.50;;;;;;5011303;28;96647;-72
2023/05/05 11:12:51;;;;;;;12.15;7.43;;;25.10;95.50;;;;;;5073099;28;20051;-73
2023/05/05 11:15:26;;;;;;;14.40;7.80;;;25.30;95.10;;;;;;4998727;28;205097;-72
2023/05/05 11:17:53;;;;;;;14.05;8.15;;;24.90;95.20;;;;;;5076172;28;20423;-70
2023/05/05 11:20:35;;;;;;;13.02;8.40;;;24.60;94.80;;;;;;4999345;28;152938;-70
2023/05/05 11:23:01;;;;;;;12.23;7.93;;;23.70;95.10;;;;;;4989458;28;214210;-69
2023/05/05 11:25:34;;;;;;;13.43;7.90;;;23.20;95.90;;;;;;5057740;28;20522;-70
2023/05/05 11:28:09;;;;;;;13.05;7.07;;;23.10;96.00;;;;;;5003184;28;208237;-70
2023/05/05 11:30:56;;;;;;;13.07;7.47;;;23.10;95.70;;;;;;5043218;28;20040;-70
2023/05/05 11:33:29;;;;;;;13.00;6.97;;;22.90;95.50;;;;;;5006860;28;168201;-70
2023/05/05 11:36:06;;;;;;;10.80;6.85;;;22.90;95.60;;;;;;5071812;28;20510;-69
2023/05/05 11:38:38;;;;;;;12.60;6.80;;;22.80;95.50;;;;;;5019067;28;205420;-69
2023/05/05 11:41:21;;;;;;;11.90;7.00;;;22.50;95.90;;;;;;5075682;28;20056;-70
2023/05/05 11:43:47;;;;;;;12.07;7.13;;;22.40;95.80;;;;;;5019232;28;212714;-70
2023/05/05 11:46:14;;;;;;;12.38;7.38;;;22.10;96.20;;;;;;5074604;28;20048;-69
2023/05/05 11:48:53;;;;;;;13.90;7.38;;;21.90;96.50;;;;;;5011550;28;215781;-71
2023/05/05 11:51:19;;;;;;;13.63;7.18;;;21.60;97.00;;;;;;5073240;28;20048;-70
2023/05/05 11:53:46;;;;;;;17.08;8.00;;;21.50;97.10;;;;;;5011193;28;207847;-71
2023/05/05 11:56:21;;;;;;;13.95;7.60;;;21.80;97.00;;;;;;5077978;28;20051;-70
2023/05/05 11:58:48;;;;;;;15.02;8.57;;;22.00;96.90;;;;;;4998167;28;212087;-70
2023/05/05 12:01:15;;;;;;;14.90;9.38;;;22.10;97.00;;;;;;5072404;28;20075;-70
2023/05/05 12:03:42;;;;;;;17.20;9.35;;;22.00;97.10;;;;;;4996003;28;210318;-71
2023/05/05 12:06:08;;;;;;;13.90;9.18;;;21.80;97.10;;;;;;5041946;28;20044;-70
2023/05/05 12:08:38;;;;;;;14.63;8.50;;;21.70;97.30;;;;;;4998782;28;206382;-71
2023/05/05 12:11:09;;;;;;;14.07;8.10;;;21.70;97.70;;;;;;5052818;28;20049;-71
2023/05/05 12:13:35;;;;;;;13.52;7.13;;;21.80;97.30;;;;;;4997325;28;211896;-71
2023/05/05 12:16:12;;;;;;;12.40;6.85;;;21.80;97.50;;;;;;5063633;28;20056;-71
2023/05/05 12:18:39;;;;;;;11.90;6.07;;;21.80;97.00;;;;;;5012064;28;216294;-70
2023/05/05 12:21:19;;;;;;;12.80;6.57;;;21.60;97.00;;;;;;5057709;28;20403;-71
2023/05/05 12:23:45;;;;;;;12.57;6.32;;;21.40;97.10;;;;;;4990528;28;210967;-71
2023/05/05 12:26:28;;;;;;;12.55;6.47;;;21.50;97.40;;;;;;5041778;28;20041;-71
2023/05/05 12:28:56;;;;;;;13.23;6.28;;;21.60;97.10;;;;;;4995550;28;211228;-70
2023/05/05 12:31:31;;;;;;;13.13;5.82;;;21.40;96.80;;;;;;5044842;28;20169;-71
2023/05/05 12:33:58;;;;;;;12.48;5.75;;;21.30;97.20;;;;;;5000160;28;221892;-70
2023/05/05 12:36:24;;;;;;;12.73;5.68;;;21.10;97.30;;;;;;5050057;28;20261;-71
2023/05/05 12:38:50;;;;;;;13.48;5.70;;;21.00;97.50;;;;;;4990391;28;216507;-70
2023/05/05 12:41:18;;;;;;;15.10;6.10;;;21.00;97.40;;;;;;5048588;28;20511;-70
2023/05/05 12:43:46;;;;;;;13.00;5.75;;;20.90;97.60;;;;;;4995773;28;214418;-70